メインページ
METAR-TAF:

METAR-TAF

空港 :

ニューオーリンズ, ルイジアナ州, アメリカ合衆国

ルイ・アームストロング・ニューオーリンズ国際空港

緯度: 29-59-34N, 経度: 090-15-03W, 海抜: 1m

現時点の気象観測

当レポートは47分前の09:53(UTC)に作成
の風 15kt、最大28ktの突風を伴う
気温 13°C
湿度 58%
気圧 1019 hPa
視程: 16.1km
高度8000ftの千切れ雲あり

METAR: KMSY 190953Z 36015G28KT 10SM BKN080 13/05 A3009 RMK AO2 PK WND 36028/0858 SLP193 T01280050

時間: 04:40 (10:40 UTC)

予報

当レポートは5時間15分前の05:25(UTC)に作成
予報は19日の 06時(UTC)から 20日の 12時(UTC)まで有効
の風 17kt、最大25ktの突風を伴う
視程: 10km
高度6000ftの千切れ雲あり
19日の 1000時(UTC)から
の風 16kt、最大24ktの突風を伴う
視程: 10km
高度20000ftの雲はほとんどない
19日の 1900時(UTC)から
の風 12kt
視程: 10km
晴天
20日の 0600時(UTC)から
北/北東の風 9kt
視程: 10km
高度25000ftの雲は散在している

TAF: KMSY 190525Z 1906/2012 36017G25KT P6SM BKN060 FM191000 36016G24KT P6SM FEW200 FM191900 36012KT P6SM SKC FM200600 03009KT P6SM SCT250

4,000以上の空港の気象観測と天気予報(METAR報とTAF報)

利用可能な観測所は地図上に黄色い丸と赤い丸で示す。

丸の上にカーソルを重ねると観測所名を参照できる。

次にクリックすると気象観測と天気予報を参照できる。

マップの切り替え:黒色「×」印の緑ボタンをクリックして拡大、「-」印の緑ボタンをクリックして縮小、緑色の三角印をクリックして隣りの地図に切り替え


METAR-TAF: